.
WxDataArchive / Data Records for 2009-02-16
2009-02-15 February 2009 2009-02-17

Data Records for Monday, 16 February 2009

Time	Temp	Chill	HIndex	Humid	Dewpt	 Wind 	HiWind	WindDir	Rain 	Barom 
-----	----	-----	------	-----	-----	------	------	-------	-----	----- 
00:00	27.5	27.5	27.5	69	18.7	0	0	---	0.00	30.350 
00:05	27.5	27.5	27.5	69	18.7	0	0	---	0.00	30.348 
00:10	27.5	27.5	27.5	69	18.7	0	0	---	0.00	30.350 
00:15	27.5	27.5	27.5	69	18.7	0	0	---	0.00	30.351 
00:20	27.3	27.3	27.3	69	18.5	0	1	22	0.00	30.351 
00:25	27.3	27.3	27.3	69	18.5	0	0	---	0.00	30.355 
00:30	27.3	27.3	27.3	69	18.5	0	0	---	0.00	30.355 
00:35	27.2	27.2	27.2	69	18.4	0	0	---	0.00	30.354 
00:40	27.2	27.2	27.2	69	18.4	0	1	22	0.00	30.353 
00:45	27.0	27.0	27.0	69	18.2	0	0	---	0.00	30.353 
00:50	26.9	26.9	26.9	69	18.1	0	0	---	0.00	30.354 
00:55	26.7	26.7	26.7	69	17.9	0	0	---	0.00	30.357 
01:00	26.6	26.6	26.6	69	17.8	0	0	---	0.00	30.358 
01:05	26.4	26.4	26.4	69	17.6	0	0	---	0.00	30.358 
01:10	26.4	26.4	26.4	70	18.0	0	0	---	0.00	30.361 
01:15	26.3	26.3	26.3	70	17.9	0	0	---	0.00	30.362 
01:20	26.3	26.3	26.3	70	17.9	0	0	---	0.00	30.363 
01:25	26.3	26.3	26.3	70	17.9	0	0	---	0.00	30.362 
01:30	26.3	26.3	26.3	70	17.9	0	0	---	0.00	30.362 
01:35	26.4	26.4	26.4	70	18.0	0	0	---	0.00	30.362 
01:40	26.4	26.4	26.4	71	18.3	0	0	---	0.00	30.361 
01:45	26.3	26.3	26.3	71	18.2	0	1	22	0.00	30.361 
01:50	26.3	26.3	26.3	71	18.2	0	0	---	0.00	30.362 
01:55	26.4	26.4	26.4	70	18.0	0	1	22	0.00	30.363 
02:00	26.4	26.4	26.4	70	18.0	0	0	---	0.00	30.366 
02:05	26.4	26.4	26.4	70	18.0	0	0	---	0.00	30.368 
02:10	26.3	26.3	26.3	70	17.9	0	1	22	0.00	30.369 
02:15	26.3	26.3	26.3	69	17.5	0	1	22	0.00	30.371 
02:20	26.1	26.1	26.1	69	17.3	0	1	22	0.00	30.370 
02:25	26.1	26.1	26.1	69	17.3	0	1	22	0.00	30.370 
02:30	26.0	26.0	26.0	69	17.2	0	0	---	0.00	30.368 
02:35	26.0	26.0	26.0	69	17.2	0	1	22	0.00	30.368 
02:40	26.0	26.0	26.0	69	17.2	0	1	22	0.00	30.368 
02:45	26.0	26.0	26.0	69	17.2	0	1	22	0.00	30.368 
02:50	26.0	26.0	26.0	69	17.2	0	1	22	0.00	30.371 
02:55	26.1	26.1	26.1	69	17.3	0	1	22	0.00	30.375 
03:00	26.1	26.1	26.1	69	17.3	0	1	22	0.00	30.374 
03:05	26.1	26.1	26.1	69	17.3	0	1	22	0.00	30.374 
03:10	26.1	26.1	26.1	69	17.3	0	2	22	0.00	30.375 
03:15	26.1	26.1	26.1	70	17.7	0	1	22	0.00	30.374 
03:20	26.1	26.1	26.1	70	17.7	0	1	22	0.00	30.374 
03:25	26.1	26.1	26.1	70	17.7	0	1	22	0.00	30.373 
03:30	26.1	26.1	26.1	71	18.0	0	1	22	0.00	30.367 
03:35	26.1	26.1	26.1	71	18.0	0	2	0	0.00	30.367 
03:40	26.0	26.0	26.0	71	17.9	0	1	0	0.00	30.366 
03:45	25.8	25.8	25.8	71	17.7	0	1	0	0.00	30.364 
03:50	25.7	25.7	25.7	72	17.9	0	1	0	0.00	30.365 
03:55	25.7	25.7	25.7	72	17.9	0	1	0	0.00	30.369 
04:00	25.7	25.7	25.7	73	18.3	0	0	---	0.00	30.374 
04:05	25.7	25.7	25.7	73	18.3	0	2	0	0.00	30.374 
04:10	25.7	25.7	25.7	73	18.3	0	1	0	0.00	30.373 
04:15	25.7	25.7	25.7	73	18.3	0	3	0	0.00	30.374 
04:20	25.7	25.7	25.7	73	18.3	0	1	270	0.00	30.373 
04:25	25.6	25.6	25.6	74	18.5	0	1	270	0.00	30.375 
04:30	25.3	25.3	25.3	74	18.2	0	0	---	0.00	30.379 
04:35	25.1	25.1	25.1	75	18.3	0	1	270	0.00	30.379 
04:40	24.8	24.8	24.8	75	18.0	0	1	270	0.00	30.379 
04:45	24.5	24.5	24.5	76	18.0	0	0	---	0.00	30.383 
04:50	24.4	24.4	24.4	76	17.9	0	0	---	0.00	30.385 
04:55	24.2	24.2	24.2	77	18.1	0	0	---	0.00	30.383 
05:00	24.2	24.2	24.2	77	18.1	0	0	---	0.00	30.387 
05:05	24.2	24.2	24.2	78	18.3	0	1	270	0.00	30.389 
05:10	24.2	24.2	24.2	78	18.3	0	0	---	0.00	30.392 
05:15	24.4	24.4	24.4	79	18.8	0	1	270	0.00	30.394 
05:20	24.4	24.4	24.4	79	18.8	0	1	270	0.00	30.390 
05:25	24.4	24.4	24.4	80	19.1	0	1	270	0.00	30.388 
05:30	24.4	24.4	24.4	80	19.1	0	1	270	0.00	30.392 
05:35	24.2	24.2	24.2	80	18.9	0	1	270	0.00	30.394 
05:40	24.1	24.1	24.1	81	19.1	0	1	270	0.00	30.396 
05:45	24.1	24.1	24.1	81	19.1	0	1	270	0.00	30.396 
05:50	23.8	23.8	23.8	81	18.8	0	1	270	0.00	30.395 
05:55	23.6	23.6	23.6	81	18.6	0	1	270	0.00	30.396 
06:00	23.3	23.3	23.3	81	18.3	0	0	---	0.00	30.396 
06:05	23.2	23.2	23.2	81	18.3	0	1	270	0.00	30.399 
06:10	23.0	23.0	23.0	82	18.3	0	0	---	0.00	30.400 
06:15	22.7	22.7	22.7	82	18.0	0	0	---	0.00	30.399 
06:20	22.5	22.5	22.5	82	17.9	0	0	---	0.00	30.401 
06:25	22.4	22.4	22.4	82	17.8	0	0	---	0.00	30.404 
06:30	22.1	22.1	22.1	83	17.7	0	0	---	0.00	30.406 
06:35	21.9	21.9	21.9	83	17.5	0	1	270	0.00	30.408 
06:40	21.8	21.8	21.8	84	17.7	0	0	---	0.00	30.411 
06:45	21.8	21.8	21.8	84	17.7	0	0	---	0.00	30.410 
06:50	21.6	21.6	21.6	84	17.5	0	0	---	0.00	30.413 
06:55	21.4	21.4	21.4	84	17.3	0	0	---	0.00	30.415 
07:00	21.3	21.3	21.3	84	17.2	0	0	---	0.00	30.416 
07:05	21.1	21.1	21.1	85	17.3	0	0	---	0.00	30.416 
07:10	21.1	21.1	21.1	85	17.3	0	0	---	0.00	30.417 
07:15	21.0	21.0	21.0	85	17.2	0	0	---	0.00	30.417 
07:20	20.8	20.8	20.8	85	17.0	0	0	---	0.00	30.416 
07:25	20.8	20.8	20.8	85	17.0	0	0	---	0.00	30.416 
07:30	20.8	20.8	20.8	85	17.0	0	0	---	0.00	30.417 
07:35	20.6	20.6	20.6	86	17.1	0	0	---	0.00	30.416 
07:40	20.6	20.6	20.6	86	17.1	0	0	---	0.00	30.418 
07:45	20.5	20.5	20.5	86	17.0	0	0	---	0.00	30.419 
07:50	20.5	20.5	20.5	86	17.0	0	1	270	0.00	30.421 
07:55	20.5	20.5	20.5	86	17.0	0	0	---	0.00	30.421 
08:00	20.6	20.6	20.6	86	17.1	0	0	---	0.00	30.419 
08:05	20.8	20.8	20.8	87	17.6	0	1	270	0.00	30.422 
08:10	21.1	21.1	21.1	87	17.8	0	1	270	0.00	30.419 
08:15	21.3	21.3	21.3	87	18.0	0	1	270	0.00	30.420 
08:20	21.6	21.6	21.6	86	18.1	0	1	270	0.00	30.423 
08:25	22.1	22.1	22.1	86	18.6	0	1	270	0.00	30.428 
08:30	22.5	22.5	22.5	85	18.7	0	1	270	0.00	30.430 
08:35	22.9	22.9	22.9	84	18.8	0	1	270	0.00	30.431 
08:40	23.2	23.2	23.2	84	19.1	0	1	270	0.00	30.430 
08:45	23.3	23.3	23.3	83	18.9	0	5	22	0.00	30.427 
08:50	23.6	23.6	23.6	82	18.9	0	3	292	0.00	30.426 
08:55	24.1	24.1	24.1	81	19.1	0	2	315	0.00	30.426 
09:00	24.4	24.4	24.4	80	19.1	0	2	315	0.00	30.428 
09:05	25.0	25.0	25.0	77	18.8	0	3	135	0.00	30.429 
09:10	25.4	25.4	25.4	76	18.9	1	3	45	0.00	30.429 
09:15	25.6	25.6	25.6	75	18.8	0	2	45	0.00	30.428 
09:20	25.6	25.6	25.6	75	18.8	0	2	22	0.00	30.428 
09:25	26.0	26.0	26.0	73	18.6	0	2	22	0.00	30.430 
09:30	26.6	26.6	26.6	72	18.8	1	4	135	0.00	30.432 
09:35	27.0	27.0	27.0	71	18.9	0	2	45	0.00	30.433 
09:40	27.5	27.5	27.5	70	19.0	0	2	45	0.00	30.436 
09:45	27.8	27.8	27.8	69	19.0	0	1	45	0.00	30.434 
09:50	27.9	27.9	27.9	68	18.7	0	3	45	0.00	30.434 
09:55	28.2	28.2	28.2	68	19.0	0	1	45	0.00	30.440 
10:00	28.5	28.5	28.5	65	18.3	0	1	45	0.00	30.443 
10:05	28.5	28.5	28.5	66	18.6	0	2	22	0.00	30.445 
10:10	28.8	28.8	28.8	65	18.5	0	3	22	0.00	30.448 
10:15	29.0	29.0	29.0	64	18.4	0	2	270	0.00	30.449 
10:20	29.0	29.0	29.0	61	17.3	1	2	0	0.00	30.453 
10:25	29.1	29.1	29.1	62	17.7	0	3	0	0.00	30.455 
10:30	29.3	29.3	29.3	62	17.9	1	2	315	0.00	30.454 
10:35	29.5	29.5	29.5	62	18.1	0	4	315	0.00	30.454 
10:40	29.7	29.7	29.7	58	16.8	1	2	270	0.00	30.455 
10:45	29.5	29.5	29.5	59	17.0	1	3	22	0.00	30.456 
10:50	29.5	29.5	29.5	58	16.6	1	5	292	0.00	30.457 
10:55	30.0	30.0	30.0	56	16.2	1	3	338	0.00	30.458 
11:00	30.3	30.3	30.3	56	16.5	1	3	0	0.00	30.465 
11:05	30.6	30.6	30.6	54	16.0	0	3	0	0.00	30.465 
11:10	30.9	30.9	30.9	49	14.0	1	3	225	0.00	30.468 
11:15	31.2	31.2	31.2	50	14.8	1	2	315	0.00	30.470 
11:20	31.5	31.5	31.5	47	13.6	1	3	248	0.00	30.469 
11:25	31.6	31.6	31.6	48	14.2	1	2	315	0.00	30.469 
11:30	31.5	31.5	31.5	47	13.6	1	4	292	0.00	30.470 
11:35	32.1	32.1	32.1	47	14.2	1	4	315	0.00	30.470 
11:40	31.5	31.5	31.5	47	13.6	0	3	22	0.00	30.470 
11:45	30.9	30.9	30.9	47	13.1	1	5	22	0.00	30.472 
11:50	30.7	30.7	30.7	50	14.3	0	3	270	0.00	30.471 
11:55	30.7	30.7	30.7	49	13.8	0	2	315	0.00	30.472 
12:00	31.2	31.2	31.2	50	14.8	1	6	292	0.00	30.470 
12:05	31.5	31.5	31.5	47	13.6	1	4	270	0.00	30.469 
12:10	31.5	31.5	31.5	47	13.6	1	3	248	0.00	30.471 
12:15	31.3	31.3	31.3	47	13.4	1	4	338	0.00	30.470 
12:20	31.3	31.3	31.3	47	13.4	2	4	270	0.00	30.471 
12:25	31.3	31.3	31.3	48	13.9	0	2	270	0.00	30.469 
12:30	32.1	32.1	32.1	49	15.1	0	1	225	0.00	30.466 
12:35	32.5	32.5	32.5	46	14.0	0	3	225	0.00	30.461 
12:40	33.2	33.2	33.2	47	15.2	1	2	248	0.00	30.457 
12:45	33.2	33.2	33.2	46	14.7	1	4	248	0.00	30.457 
12:50	33.5	33.5	33.5	48	15.9	2	7	338	0.00	30.455 
12:55	33.1	33.1	33.1	46	14.6	1	4	315	0.00	30.457 
13:00	31.9	31.9	31.9	46	13.5	1	3	315	0.00	30.456 
13:05	31.6	31.6	31.6	47	13.7	1	3	315	0.00	30.456 
13:10	31.6	31.6	31.6	49	14.7	1	3	338	0.00	30.455 
13:15	31.5	31.5	31.5	48	14.1	1	2	292	0.00	30.451 
13:20	31.2	31.2	31.2	48	13.8	1	4	338	0.00	30.449 
13:25	31.5	31.5	31.5	51	15.5	1	3	248	0.00	30.448 
13:30	32.4	32.4	32.4	51	16.3	1	4	270	0.00	30.445 
13:35	32.8	32.8	32.8	49	15.8	1	4	315	0.00	30.444 
13:40	32.9	32.9	32.9	48	15.4	1	4	22	0.00	30.443 
13:45	33.2	33.2	33.2	47	15.2	1	4	22	0.00	30.441 
13:50	33.2	33.2	33.2	46	14.7	1	4	22	0.00	30.438 
13:55	33.4	33.4	33.4	48	15.8	1	3	270	0.00	30.434 
14:00	33.5	33.5	33.5	47	15.5	2	6	248	0.00	30.430 
14:05	33.5	33.5	33.5	46	15.0	2	6	248	0.00	30.430 
14:10	33.5	33.5	33.5	47	15.5	1	3	248	0.00	30.428 
14:15	34.0	34.0	34.0	47	15.9	1	4	248	0.00	30.426 
14:20	33.1	33.1	33.1	44	13.6	1	3	315	0.00	30.425 
14:25	33.4	33.4	33.4	48	15.8	1	3	248	0.00	30.425 
14:30	33.5	33.5	33.5	45	14.5	1	5	248	0.00	30.423 
14:35	33.7	33.7	33.7	47	15.6	1	5	270	0.00	30.422 
14:40	33.7	33.7	33.7	46	15.1	1	4	248	0.00	30.422 
14:45	33.7	33.7	33.7	45	14.6	1	5	248	0.00	30.422 
14:50	33.5	33.5	33.5	45	14.5	1	5	248	0.00	30.422 
14:55	33.7	33.7	33.7	47	15.6	2	6	248	0.00	30.422 
15:00	33.8	33.8	33.8	45	14.7	1	5	338	0.00	30.424 
15:05	33.8	33.8	33.8	45	14.7	2	5	270	0.00	30.425 
15:10	33.2	33.2	33.2	44	13.7	1	3	338	0.00	30.423 
15:15	33.4	33.4	33.4	46	14.9	1	2	338	0.00	30.425 
15:20	33.7	33.7	33.7	47	15.6	1	2	315	0.00	30.423 
15:25	34.3	34.3	34.3	45	15.2	1	3	315	0.00	30.424 
15:30	34.6	34.6	34.6	45	15.5	1	3	248	0.00	30.426 
15:35	34.1	34.1	34.1	46	15.5	1	3	270	0.00	30.427 
15:40	33.8	33.8	33.8	44	14.2	1	4	248	0.00	30.427 
15:45	34.3	34.3	34.3	47	16.2	1	4	248	0.00	30.425 
15:50	34.6	34.6	34.6	45	15.5	2	6	248	0.00	30.423 
15:55	34.7	34.7	34.7	44	15.0	2	6	248	0.00	30.422 
16:00	34.6	34.6	34.6	43	14.4	2	6	248	0.00	30.421 
16:05	34.3	34.3	34.3	45	15.2	3	6	248	0.00	30.422 
16:10	34.1	34.1	34.1	46	15.5	1	6	248	0.00	30.422 
16:15	34.3	34.3	34.3	46	15.7	1	4	248	0.00	30.424 
16:20	33.2	33.2	33.2	45	14.2	1	4	338	0.00	30.425 
16:25	32.5	32.5	32.5	46	14.0	0	2	270	0.00	30.426 
16:30	32.2	32.2	32.2	49	15.2	1	3	248	0.00	30.425 
16:35	32.4	32.4	32.4	48	14.9	1	4	225	0.00	30.426 
16:40	32.4	32.4	32.4	48	14.9	1	3	248	0.00	30.424 
16:45	32.4	32.4	32.4	48	14.9	1	3	248	0.00	30.424 
16:50	32.4	32.4	32.4	47	14.4	1	3	315	0.00	30.425 
16:55	32.1	32.1	32.1	49	15.1	0	3	315	0.00	30.424 
17:00	31.8	31.8	31.8	50	15.3	1	2	248	0.00	30.420 
17:05	31.5	31.5	31.5	50	15.0	0	2	315	0.00	30.421 
17:10	31.5	31.5	31.5	50	15.0	0	2	315	0.00	30.419 
17:15	31.5	31.5	31.5	50	15.0	0	3	338	0.00	30.419 
17:20	31.5	31.5	31.5	50	15.0	0	1	338	0.00	30.418 
17:25	31.5	31.5	31.5	50	15.0	0	2	338	0.00	30.415 
17:30	31.3	31.3	31.3	50	14.8	0	1	338	0.00	30.413 
17:35	31.3	31.3	31.3	51	15.3	0	2	338	0.00	30.411 
17:40	31.2	31.2	31.2	51	15.2	0	1	338	0.00	30.410 
17:45	31.0	31.0	31.0	51	15.0	0	1	338	0.00	30.410 
17:50	30.7	30.7	30.7	52	15.2	0	1	338	0.00	30.409 
17:55	30.6	30.6	30.6	52	15.1	0	1	338	0.00	30.409 
18:00	30.4	30.4	30.4	52	14.9	0	0	---	0.00	30.412 
18:05	30.3	30.3	30.3	52	14.8	0	0	---	0.00	30.415 
18:10	30.0	30.0	30.0	52	14.5	0	1	338	0.00	30.411 
18:15	29.7	29.7	29.7	53	14.7	0	1	338	0.00	30.413 
18:20	29.5	29.5	29.5	53	14.5	0	0	---	0.00	30.409 
18:25	29.1	29.1	29.1	54	14.6	0	0	---	0.00	30.406 
18:30	29.0	29.0	29.0	54	14.5	0	0	---	0.00	30.401 
18:35	28.7	28.7	28.7	55	14.6	0	0	---	0.00	30.400 
18:40	28.2	28.2	28.2	56	14.5	0	0	---	0.00	30.401 
18:45	27.9	27.9	27.9	57	14.7	0	0	---	0.00	30.403 
18:50	27.5	27.5	27.5	58	14.7	0	0	---	0.00	30.402 
18:55	27.2	27.2	27.2	58	14.4	0	0	---	0.00	30.403 
19:00	26.7	26.7	26.7	59	14.3	0	0	---	0.00	30.406 
19:05	26.6	26.6	26.6	60	14.6	0	0	---	0.00	30.408 
19:10	26.3	26.3	26.3	61	14.7	0	0	---	0.00	30.403 
19:15	26.1	26.1	26.1	62	14.9	0	0	---	0.00	30.395 
19:20	26.0	26.0	26.0	63	15.2	0	0	---	0.00	30.396 
19:25	25.8	25.8	25.8	63	15.0	0	0	---	0.00	30.394 
19:30	25.6	25.6	25.6	64	15.1	0	0	---	0.00	30.398 
19:35	25.4	25.4	25.4	64	14.9	0	0	---	0.00	30.398 
19:40	25.1	25.1	25.1	65	15.0	0	0	---	0.00	30.396 
19:45	25.0	25.0	25.0	65	14.9	0	0	---	0.00	30.400 
19:50	24.7	24.7	24.7	66	15.0	0	0	---	0.00	30.401 
19:55	24.5	24.5	24.5	67	15.1	0	0	---	0.00	30.403 
20:00	24.4	24.4	24.4	68	15.4	0	0	---	0.00	30.405 
20:05	24.2	24.2	24.2	69	15.5	0	0	---	0.00	30.399 
20:10	24.1	24.1	24.1	69	15.4	0	0	---	0.00	30.398 
20:15	23.9	23.9	23.9	70	15.6	0	0	---	0.00	30.401 
20:20	23.8	23.8	23.8	70	15.5	0	0	---	0.00	30.402 
20:25	23.8	23.8	23.8	71	15.8	0	0	---	0.00	30.404 
20:30	24.1	24.1	24.1	71	16.1	0	1	338	0.00	30.405 
20:35	24.4	24.4	24.4	70	16.0	0	1	338	0.00	30.403 
20:40	24.8	24.8	24.8	69	16.1	0	1	338	0.00	30.403 
20:45	25.3	25.3	25.3	68	16.2	0	1	315	0.00	30.402 
20:50	25.4	25.4	25.4	67	16.0	0	1	315	0.00	30.400 
20:55	25.6	25.6	25.6	67	16.2	0	1	315	0.00	30.398 
21:00	25.6	25.6	25.6	67	16.2	0	1	315	0.00	30.398 
21:05	25.4	25.4	25.4	67	16.0	0	0	---	0.00	30.391 
21:10	25.3	25.3	25.3	67	15.9	0	0	---	0.00	30.385 
21:15	25.0	25.0	25.0	68	16.0	0	0	---	0.00	30.386 
21:20	24.7	24.7	24.7	68	15.7	0	0	---	0.00	30.387 
21:25	24.4	24.4	24.4	69	15.7	0	1	315	0.00	30.386 
21:30	24.2	24.2	24.2	69	15.5	0	0	---	0.00	30.383 
21:35	24.1	24.1	24.1	69	15.4	0	0	---	0.00	30.382 
21:40	23.8	23.8	23.8	69	15.1	0	0	---	0.00	30.380 
21:45	23.5	23.5	23.5	69	14.9	0	0	---	0.00	30.380 
21:50	23.2	23.2	23.2	70	14.9	0	0	---	0.00	30.381 
21:55	22.9	22.9	22.9	71	14.9	0	0	---	0.00	30.382 
22:00	22.7	22.7	22.7	72	15.1	0	0	---	0.00	30.379 
22:05	22.4	22.4	22.4	72	14.8	0	0	---	0.00	30.374 
22:10	22.2	22.2	22.2	73	14.9	0	0	---	0.00	30.369 
22:15	22.1	22.1	22.1	73	14.8	0	0	---	0.00	30.367 
22:20	21.9	21.9	21.9	74	14.9	0	0	---	0.00	30.366 
22:25	21.8	21.8	21.8	75	15.1	0	0	---	0.00	30.366 
22:30	21.4	21.4	21.4	75	14.7	0	0	---	0.00	30.364 
22:35	21.3	21.3	21.3	76	14.9	0	0	---	0.00	30.366 
22:40	21.1	21.1	21.1	76	14.7	0	0	---	0.00	30.367 
22:45	20.8	20.8	20.8	76	14.5	0	0	---	0.00	30.367 
22:50	20.6	20.6	20.6	76	14.3	0	0	---	0.00	30.368 
22:55	20.3	20.3	20.3	77	14.3	0	0	---	0.00	30.368 
23:00	20.2	20.2	20.2	77	14.2	0	0	---	0.00	30.367 
23:05	19.9	19.9	19.9	77	13.9	0	0	---	0.00	30.368 
23:10	19.7	19.7	19.7	79	14.3	0	0	---	0.00	30.367 
23:15	19.7	19.7	19.7	80	14.6	0	0	---	0.00	30.365 
23:20	19.7	19.7	19.7	81	14.8	0	0	---	0.00	30.365 
23:25	19.7	19.7	19.7	82	15.1	0	0	---	0.00	30.362 
23:30	19.9	19.9	19.9	82	15.3	0	0	---	0.00	30.362 
23:35	19.9	19.9	19.9	82	15.3	0	0	---	0.00	30.359 
23:40	19.9	19.9	19.9	82	15.3	0	0	---	0.00	30.360 
23:45	19.9	19.9	19.9	82	15.3	0	0	---	0.00	30.357 
23:50	19.9	19.9	19.9	83	15.6	0	0	---	0.00	30.356 
23:55	19.9	19.9	19.9	83	15.6	0	0	---	0.00	30.354 

CoCoRaHS
IN-AL-39
A2 Web Hosting
Creative Commons License
GoDaddy
search engine by freefind advanced

loaded 2018-11-14 04:10:38 • last modified 2010-11-18 10:43:29
Privacy PolicyDisclaimer
• wx.awcolley.com is powered by PmWiki v.2002016 •
• all content (unless otherwise noted) © 2018 A W Colley